Etusivu
METAR-TAF:

METAR-TAF

Lentoasemat :

Columbus, Indiana, Yhdysvallat

Leveyspiiri: 39-16N, Pituuspiiri: 085-54W, korkeus merenpinnasta: 200 m

Tämänhetkinen sää

Tämä raportti tehtiin 49 minuuttia sitten, kello 16.47 UTC
Tuuli 8 kn etelästä
Lämpötila 4°C
Kosteus 38%
Ilmanpaine 1029 hPa
Näkyvyys: 16.1 km
selkeää

METAR: KBAK 221647Z 19008KT 10SM SKC 04/M09 A3040

Aika: 12:36 (17:36 UTC)


TAF: puuttuu

Säähavainnot ja -ennusteet yli 4000 lentoasemalta (METAR- ja TAF-raportit).

Käytössä olevat sääasemat on merkitty karttaan keltaisilla ja punaisilla pisteillä.

Aseta hiiri pisteen päälle nähdäksesi sääaseman nimen.

Klikkaa sitten nähdäksesi säähavainnot ja -ennusteet.

Kartan vaihtaminen: klikkaa mustalla rastilla varustettuja vihreitä pisteitä, niin voit zoomata sisään; viivalla varustettua vihreää pistettä, niin voit zoomata ulos tai vihreitä nuolia, niin pääset viereisille kartoille.


METAR-TAF: